Time;durP1;ratioP1;P1;durP2;ratioP2;P2;SDS_P1;SDS_P2;PMS_P1;PMS_P2;Temp;Humidity;BMP_temperature;BMP_pressure;BME280_temperature;BME280_humidity;BME280_pressure;Samples;Min_cycle;Max_cycle;Signal;HPM_P1;HPM_P2
2022/09/25 00:00:12;;;;;;;7.82;3.03;;;;;;;5.87;100.00;102104.09;5021301;28;20033;-79
2022/09/25 00:02:38;;;;;;;7.55;2.78;;;;;;;5.73;100.00;102087.28;5009831;28;20037;-79
2022/09/25 00:05:04;;;;;;;8.60;2.90;;;;;;;5.89;100.00;102107.53;5028733;28;20456;-79
2022/09/25 00:07:30;;;;;;;4.78;2.50;;;;;;;5.89;100.00;102096.84;5026283;28;20120;-79
2022/09/25 00:09:55;;;;;;;5.93;2.20;;;;;;;5.85;100.00;102090.03;5026853;28;20039;-78
2022/09/25 00:12:21;;;;;;;9.95;4.13;;;;;;;5.75;100.00;102081.84;5007923;28;20156;-79
2022/09/25 00:14:50;;;;;;;5.70;2.50;;;;;;;5.76;100.00;102096.03;5008615;28;20238;-80
2022/09/25 00:17:16;;;;;;;6.65;2.33;;;;;;;5.64;100.00;102103.97;5008387;28;20112;-77
2022/09/25 00:19:51;;;;;;;7.30;2.13;;;;;;;5.60;100.00;102098.97;5026815;28;20452;-77
2022/09/25 00:22:22;;;;;;;5.82;2.38;;;;;;;5.46;100.00;102089.28;4998380;28;20475;-77
2022/09/25 00:24:48;;;;;;;5.50;2.67;;;;;;;5.39;100.00;102093.34;5013735;28;20468;-78
2022/09/25 00:27:14;;;;;;;8.38;2.85;;;;;;;5.36;100.00;102096.25;5018296;28;20051;-77
2022/09/25 00:29:40;;;;;;;8.07;3.05;;;;;;;5.21;100.00;102092.84;5007477;28;20044;-81
2022/09/25 00:32:08;;;;;;;8.60;3.17;;;;;;;5.02;100.00;102099.47;5013313;28;20077;-80
2022/09/25 00:34:33;;;;;;;9.00;3.08;;;;;;;5.07;100.00;102108.00;5023006;28;20433;-79
2022/09/25 00:36:59;;;;;;;6.10;3.38;;;;;;;4.92;100.00;102109.06;5013640;28;20029;-79
2022/09/25 00:39:25;;;;;;;5.00;2.22;;;;;;;4.86;100.00;102106.81;5015147;28;20036;-79
2022/09/25 00:41:51;;;;;;;4.38;2.15;;;;;;;4.75;100.00;102099.56;5023055;28;20030;-79
2022/09/25 00:44:42;;;;;;;4.35;2.03;;;;;;;4.98;100.00;102121.13;5028583;28;20055;-78
2022/09/25 00:47:09;;;;;;;6.07;2.40;;;;;;;5.00;100.00;102112.06;5020562;28;20036;-79
2022/09/25 00:49:35;;;;;;;5.93;1.63;;;;;;;5.01;100.00;102111.09;5010843;28;20064;-78
2022/09/25 00:52:05;;;;;;;6.88;2.10;;;;;;;4.97;100.00;102109.59;5002037;28;20065;-79
2022/09/25 00:54:34;;;;;;;6.00;1.90;;;;;;;4.94;100.00;102108.94;4995219;28;20030;-78
2022/09/25 00:57:05;;;;;;;5.38;1.77;;;;;;;4.74;100.00;102084.53;5019103;28;20117;-77
2022/09/25 00:59:39;;;;;;;7.15;2.08;;;;;;;4.76;100.00;102090.63;4990748;28;20432;-78
2022/09/25 01:02:04;;;;;;;;;;;;;;;4.72;100.00;102088.28;5025975;28;20033;-77
2022/09/25 01:04:33;;;;;;;4.60;1.70;;;;;;;4.68;100.00;102079.59;5005151;28;19924;-79
2022/09/25 01:06:59;;;;;;;4.38;1.90;;;;;;;4.61;100.00;102079.19;5023207;28;20264;-80
2022/09/25 01:09:26;;;;;;;5.90;2.00;;;;;;;4.51;100.00;102066.59;5020005;28;20038;-77
2022/09/25 01:11:54;;;;;;;2.70;1.80;;;;;;;4.37;100.00;102063.06;5025254;28;20033;-78
2022/09/25 01:14:19;;;;;;;4.00;1.80;;;;;;;4.21;100.00;102057.06;5020618;28;20537;-78
2022/09/25 01:17:23;;;;;;;2.38;1.60;;;;;;;4.25;100.00;102063.03;5009750;28;20026;-78
2022/09/25 01:20:21;;;;;;;3.63;1.38;;;;;;;4.26;100.00;102065.59;5023431;28;20049;-78
2022/09/25 01:23:16;;;;;;;4.80;1.77;;;;;;;4.24;100.00;102056.88;4996738;28;20045;-78
2022/09/25 01:26:17;;;;;;;4.13;1.63;;;;;;;4.21;100.00;102056.19;5005267;28;20038;-78
2022/09/25 01:29:09;;;;;;;3.47;2.00;;;;;;;4.15;100.00;102050.34;5013785;28;20042;-78
2022/09/25 01:31:41;;;;;;;3.10;1.90;;;;;;;3.91;100.00;102042.16;5000407;28;20095;-78
2022/09/25 01:34:17;;;;;;;5.03;1.83;;;;;;;3.90;100.00;102048.44;5003098;28;20022;-78
2022/09/25 01:36:56;;;;;;;5.53;1.85;;;;;;;3.79;100.00;102058.94;5026938;28;20030;-79
2022/09/25 01:39:31;;;;;;;3.45;2.00;;;;;;;3.74;100.00;102058.41;5028800;28;20032;-78
2022/09/25 01:42:30;;;;;;;3.97;1.75;;;;;;;3.66;100.00;102052.72;5020434;28;20071;-78
2022/09/25 01:45:06;;;;;;;4.50;1.60;;;;;;;3.55;100.00;102040.13;4984493;28;20038;-77
2022/09/25 01:47:38;;;;;;;4.25;1.65;;;;;;;3.51;100.00;102036.78;5005657;28;20068;-78
2022/09/25 01:50:12;;;;;;;6.85;2.05;;;;;;;3.67;100.00;102044.63;5020193;28;20025;-78
2022/09/25 01:52:45;;;;;;;2.67;1.50;;;;;;;3.67;100.00;102033.13;4997292;28;20124;-78
2022/09/25 01:55:17;;;;;;;4.93;1.77;;;;;;;3.65;100.00;102038.56;5023780;28;20121;-78
2022/09/25 01:57:50;;;;;;;1.83;1.40;;;;;;;3.56;100.00;102032.97;5011955;28;20274;-78
2022/09/25 02:00:21;;;;;;;4.70;2.05;;;;;;;3.55;100.00;102032.13;5015377;28;20176;-77
2022/09/25 02:02:54;;;;;;;5.97;1.77;;;;;;;3.53;100.00;102029.56;5025029;28;20026;-77
2022/09/25 02:05:30;;;;;;;3.92;1.80;;;;;;;3.62;100.00;102017.47;5014236;28;20057;-78
2022/09/25 02:08:00;;;;;;;2.92;1.40;;;;;;;3.52;100.00;102011.06;5000839;28;20502;-77
2022/09/25 02:10:33;;;;;;;3.75;1.48;;;;;;;3.52;100.00;102011.91;5010954;28;20037;-77
2022/09/25 02:13:05;;;;;;;3.20;1.33;;;;;;;3.46;100.00;102004.31;5013290;28;20037;-77
2022/09/25 02:15:34;;;;;;;1.88;1.00;;;;;;;3.41;100.00;101992.28;5009841;28;20262;-77
2022/09/25 02:21:16;;;;;;;2.92;1.58;;;;;;;3.55;100.00;102016.19;5013017;28;20041;-78
2022/09/25 02:24:21;;;;;;;4.82;1.80;;;;;;;3.56;100.00;102025.00;4994174;28;20484;-78
2022/09/25 02:26:49;;;;;;;2.70;1.33;;;;;;;3.50;100.00;102016.47;5013134;28;20084;-78
2022/09/25 02:29:16;;;;;;;3.08;1.50;;;;;;;3.35;100.00;102004.16;5014647;28;20502;-77
2022/09/25 02:32:01;;;;;;;3.88;1.40;;;;;;;3.28;100.00;102009.03;5013692;28;20065;-78
2022/09/25 02:34:27;;;;;;;3.53;1.55;;;;;;;3.26;100.00;102007.41;5016019;28;20029;-77
2022/09/25 02:36:53;;;;;;;4.40;1.40;;;;;;;3.32;100.00;102006.16;5026209;28;20029;-77
2022/09/25 02:39:21;;;;;;;3.67;1.50;;;;;;;3.35;100.00;102000.66;5023248;28;20443;-77
2022/09/25 02:41:51;;;;;;;4.53;1.63;;;;;;;3.22;100.00;101990.78;4992496;28;20475;-77
2022/09/25 02:44:42;;;;;;;2.47;1.42;;;;;;;3.24;100.00;102001.34;5031625;28;20036;-77
2022/09/25 02:47:55;;;;;;;7.60;1.90;;;;;;;3.16;100.00;102000.97;5013215;28;20037;-79
2022/09/25 02:50:45;;;;;;;4.68;1.75;;;;;;;3.03;100.00;101998.22;5004853;28;20081;-78
2022/09/25 02:53:23;;;;;;;1.98;1.63;;;;;;;2.95;100.00;101996.06;5022281;28;20117;-77
2022/09/25 02:55:53;;;;;;;4.00;1.25;;;;;;;3.03;100.00;101995.56;5010167;28;20060;-77
2022/09/25 02:58:44;;;;;;;3.42;1.50;;;;;;;3.20;100.00;101989.19;4995067;28;20323;-78
2022/09/25 03:01:13;;;;;;;3.45;1.65;;;;;;;3.05;100.00;101989.22;5031780;28;20022;-77
2022/09/25 03:03:40;;;;;;;2.53;1.48;;;;;;;2.77;100.00;101955.53;5015626;28;20059;-79
2022/09/25 03:06:07;;;;;;;2.80;1.67;;;;;;;2.89;100.00;101977.84;5015234;28;20030;-77
2022/09/25 03:08:39;;;;;;;3.72;1.83;;;;;;;3.04;100.00;101995.50;5026239;28;20034;-77
2022/09/25 03:11:07;;;;;;;2.87;1.83;;;;;;;3.14;100.00;101989.56;5027305;28;20546;-77
2022/09/25 03:13:34;;;;;;;4.43;1.90;;;;;;;3.16;100.00;101988.53;5015474;28;20036;-77
2022/09/25 03:16:05;;;;;;;4.60;1.80;;;;;;;3.00;100.00;101978.03;5025792;28;20041;-77
2022/09/25 03:18:31;;;;;;;3.50;1.83;;;;;;;2.98;100.00;101985.22;5019112;28;20108;-76
2022/09/25 03:20:57;;;;;;;2.92;1.67;;;;;;;2.72;100.00;101939.03;5024921;28;20040;-77
2022/09/25 03:23:23;;;;;;;8.27;1.58;;;;;;;2.92;100.00;101980.31;5031993;28;20079;-77
2022/09/25 03:25:52;;;;;;;5.07;2.08;;;;;;;2.73;100.00;101977.09;5020467;28;20040;-77
2022/09/25 03:28:17;;;;;;;4.72;2.00;;;;;;;2.54;100.00;101964.09;5027465;28;20037;-78
2022/09/25 03:30:44;;;;;;;5.10;1.90;;;;;;;2.42;100.00;101969.19;5024623;28;20036;-78
2022/09/25 03:33:11;;;;;;;3.67;1.88;;;;;;;2.39;100.00;101977.34;5014012;28;20510;-78
2022/09/25 03:35:38;;;;;;;6.63;1.67;;;;;;;2.39;100.00;101956.13;5000298;28;20475;-77
2022/09/25 03:38:05;;;;;;;2.22;1.60;;;;;;;2.48;100.00;101951.19;5023482;28;20037;-79
2022/09/25 03:40:30;;;;;;;3.13;1.63;;;;;;;2.55;100.00;101963.16;5022329;28;20120;-78
2022/09/25 03:42:56;;;;;;;5.10;1.58;;;;;;;2.42;100.00;101966.53;5009013;28;20026;-77
2022/09/25 03:45:22;;;;;;;4.07;1.50;;;;;;;2.28;100.00;101965.69;5028477;28;20380;-78
2022/09/25 03:47:47;;;;;;;1.63;1.05;;;;;;;2.33;100.00;101977.72;4999008;28;20026;-77
2022/09/25 03:50:13;;;;;;;3.38;1.50;;;;;;;2.41;100.00;101977.28;5025450;28;20375;-77
2022/09/25 03:52:39;;;;;;;2.50;1.33;;;;;;;2.37;100.00;101952.69;5022771;28;20033;-78
2022/09/25 03:55:05;;;;;;;1.30;1.10;;;;;;;2.51;100.00;101967.78;5008646;28;20052;-77
2022/09/25 03:57:30;;;;;;;1.95;1.25;;;;;;;2.62;100.00;101962.69;5029724;28;20025;-78
2022/09/25 04:00:00;;;;;;;3.25;1.52;;;;;;;2.84;100.00;101969.31;5020552;28;20103;-77
2022/09/25 04:02:27;;;;;;;1.92;1.35;;;;;;;3.15;100.00;101970.00;5022260;28;20024;-79
2022/09/25 04:04:53;;;;;;;4.35;1.48;;;;;;;3.22;100.00;101942.09;5010117;28;20471;-78
2022/09/25 04:07:20;;;;;;;2.05;1.20;;;;;;;3.46;100.00;101963.56;5027104;28;20036;-77
2022/09/25 04:09:46;;;;;;;3.85;1.88;;;;;;;3.57;100.00;101957.56;4996557;28;20056;-77
2022/09/25 04:12:12;;;;;;;2.38;1.20;;;;;;;3.75;100.00;101961.66;5026312;28;20476;-77
2022/09/25 04:14:37;;;;;;;2.67;1.52;;;;;;;3.78;100.00;101945.50;5006739;28;20025;-78
2022/09/25 04:17:03;;;;;;;2.47;1.25;;;;;;;3.97;100.00;101955.78;5008766;28;20040;-77
2022/09/25 04:19:29;;;;;;;1.67;1.30;;;;;;;3.93;100.00;101951.59;4987468;28;20033;-77
2022/09/25 04:21:55;;;;;;;3.35;1.40;;;;;;;3.94;100.00;101948.84;5024508;28;20029;-77
2022/09/25 04:27:05;;;;;;;4.85;1.58;;;;;;;4.11;100.00;101954.81;5027577;28;20069;-77
2022/09/25 04:29:31;;;;;;;4.68;1.70;;;;;;;4.24;100.00;101961.03;5023987;28;20103;-79
2022/09/25 04:34:41;;;;;;;2.42;1.60;;;;;;;4.30;100.00;101933.13;5018045;28;20029;-79
2022/09/25 04:37:07;;;;;;;2.97;1.70;;;;;;;4.43;100.00;101949.09;5023878;28;20491;-78
2022/09/25 04:39:32;;;;;;;3.47;1.92;;;;;;;4.41;100.00;101938.53;5013669;28;20033;-79
2022/09/25 04:41:58;;;;;;;3.28;1.85;;;;;;;4.43;100.00;101931.31;5026664;28;20086;-78
2022/09/25 04:44:24;;;;;;;4.47;2.30;;;;;;;4.68;100.00;101942.88;5012414;28;20030;-78
2022/09/25 04:46:51;;;;;;;6.10;2.38;;;;;;;4.83;100.00;101952.47;5020840;28;20113;-79
2022/09/25 04:49:16;;;;;;;4.68;1.80;;;;;;;4.95;100.00;101950.72;5027824;28;20029;-79
2022/09/25 04:51:42;;;;;;;5.47;2.42;;;;;;;4.92;100.00;101940.28;5012809;28;20039;-77
2022/09/25 04:54:08;;;;;;;6.18;2.10;;;;;;;4.98;100.00;101947.88;5013148;28;20029;-78
2022/09/25 04:56:33;;;;;;;3.45;1.88;;;;;;;5.04;100.00;101950.06;5022028;28;20447;-78
2022/09/25 04:58:59;;;;;;;4.47;2.03;;;;;;;5.10;100.00;101952.28;5009625;28;20747;-78
2022/09/25 05:01:25;;;;;;;5.07;1.95;;;;;;;5.03;100.00;101935.91;5019432;28;20506;-78
2022/09/25 05:03:52;;;;;;;6.20;2.08;;;;;;;5.24;100.00;101970.81;5024217;28;20037;-78
2022/09/25 05:06:18;;;;;;;3.53;1.75;;;;;;;5.25;100.00;101983.19;5024614;28;20109;-78
2022/09/25 05:08:51;;;;;;;4.72;2.47;;;;;;;5.21;100.00;101963.06;5022725;28;20022;-79
2022/09/25 05:11:17;;;;;;;3.58;2.10;;;;;;;5.25;100.00;101964.50;5007144;28;20030;-78
2022/09/25 05:13:45;;;;;;;3.25;1.85;;;;;;;5.38;100.00;101969.81;5020930;28;20493;-78
2022/09/25 05:16:11;;;;;;;4.20;2.60;;;;;;;5.42;100.00;101965.09;5013712;28;20083;-79
2022/09/25 05:18:37;;;;;;;5.20;2.30;;;;;;;5.49;100.00;101966.34;4995518;28;20029;-78
2022/09/25 05:21:03;;;;;;;7.18;2.97;;;;;;;5.59;100.00;101964.72;5019892;28;20038;-78
2022/09/25 05:23:29;;;;;;;5.00;2.50;;;;;;;5.49;100.00;101939.69;5028401;28;20021;-78
2022/09/25 05:26:00;;;;;;;7.55;3.05;;;;;;;5.71;100.00;101966.44;5005761;28;20040;-78
2022/09/25 05:28:30;;;;;;;8.07;2.63;;;;;;;5.76;100.00;101967.94;5007663;28;20030;-78
2022/09/25 05:31:03;;;;;;;4.25;2.42;;;;;;;5.78;100.00;101969.53;5012494;28;20475;-78
2022/09/25 05:33:33;;;;;;;4.95;3.13;;;;;;;5.80;100.00;101956.94;5023513;28;20145;-78
2022/09/25 05:36:00;;;;;;;5.03;2.78;;;;;;;5.74;100.00;101952.03;5028992;28;20476;-78
2022/09/25 05:38:27;;;;;;;6.72;3.28;;;;;;;5.80;100.00;101964.09;5021669;28;20025;-78
2022/09/25 05:40:55;;;;;;;6.28;3.40;;;;;;;5.76;100.00;101966.13;5025989;28;20037;-78
2022/09/25 05:43:21;;;;;;;8.93;3.28;;;;;;;5.84;100.00;101960.19;5025977;28;20518;-78
2022/09/25 05:45:56;;;;;;;8.90;3.58;;;;;;;5.83;100.00;101964.69;5000877;28;20030;-79
2022/09/25 05:48:22;;;;;;;4.75;2.70;;;;;;;5.84;100.00;101966.38;4990609;28;20052;-78
2022/09/25 05:50:55;;;;;;;4.97;2.33;;;;;;;5.87;100.00;101965.31;4998497;28;20065;-78
2022/09/25 05:53:21;;;;;;;5.93;2.45;;;;;;;5.89;100.00;101969.56;4994227;28;20029;-78
2022/09/25 05:55:54;;;;;;;8.77;2.80;;;;;;;5.82;100.00;101955.00;5000163;28;20073;-78
2022/09/25 05:58:23;;;;;;;6.45;3.42;;;;;;;5.90;100.00;101967.75;5019804;28;20480;-78
2022/09/25 06:00:49;;;;;;;5.43;3.42;;;;;;;5.80;100.00;101932.91;5024529;28;20472;-79
2022/09/25 06:03:15;;;;;;;7.03;3.40;;;;;;;5.98;100.00;101959.19;5026280;28;20037;-78
2022/09/25 06:05:43;;;;;;;5.65;2.67;;;;;;;5.96;100.00;101955.81;5023592;28;20506;-79
2022/09/25 06:08:09;;;;;;;6.35;2.85;;;;;;;6.03;100.00;101963.19;5008797;28;20096;-78
2022/09/25 06:10:34;;;;;;;6.60;3.40;;;;;;;6.02;100.00;101964.19;5013870;28;20057;-77
2022/09/25 06:13:03;;;;;;;6.43;3.25;;;;;;;6.01;100.00;101951.81;4989169;28;20387;-78
2022/09/25 06:15:36;;;;;;;5.20;2.85;;;;;;;6.05;100.00;101953.25;5011868;28;20146;-78
2022/09/25 06:18:03;;;;;;;4.10;2.30;;;;;;;6.01;100.00;101941.13;5013413;28;20033;-77
2022/09/25 06:20:29;;;;;;;5.00;3.13;;;;;;;6.09;100.00;101946.75;5013448;28;20025;-78
2022/09/25 06:22:56;;;;;;;8.15;3.00;;;;;;;6.11;100.00;101957.28;5028024;28;20034;-78
2022/09/25 06:25:24;;;;;;;5.57;2.63;;;;;;;6.10;100.00;101955.59;5029305;28;20107;-78
2022/09/25 06:27:56;;;;;;;5.40;2.80;;;;;;;6.09;100.00;101952.06;5024600;28;20029;-78
2022/09/25 06:30:22;;;;;;;3.92;2.65;;;;;;;6.07;100.00;101950.50;5024934;28;20052;-78
2022/09/25 06:32:50;;;;;;;4.13;2.40;;;;;;;6.11;100.00;101958.16;5011201;28;20021;-78
2022/09/25 06:35:16;;;;;;;5.05;2.65;;;;;;;6.14;100.00;101952.56;5022458;28;20048;-80
2022/09/25 06:37:41;;;;;;;6.93;2.85;;;;;;;6.23;100.00;101958.19;5026048;28;20116;-78
2022/09/25 06:40:07;;;;;;;4.78;2.80;;;;;;;6.28;100.00;101958.69;5028126;28;20030;-78
2022/09/25 06:42:34;;;;;;;6.10;3.10;;;;;;;6.31;100.00;101955.75;5009046;28;20471;-78
2022/09/25 06:45:00;;;;;;;5.32;3.38;;;;;;;6.39;100.00;101956.84;5025639;28;20048;-78
2022/09/25 06:47:26;;;;;;;5.75;3.22;;;;;;;6.52;100.00;101959.44;5024088;28;20030;-78
2022/09/25 06:49:51;;;;;;;6.63;2.97;;;;;;;6.59;100.00;101954.47;5024072;28;20105;-78
2022/09/25 06:52:17;;;;;;;4.28;2.85;;;;;;;6.68;100.00;101956.41;5029739;28;20451;-79
2022/09/25 06:54:43;;;;;;;5.15;2.70;;;;;;;6.71;100.00;101950.81;5023162;28;20037;-77
2022/09/25 06:57:11;;;;;;;7.53;3.15;;;;;;;6.83;100.00;101957.03;5028330;28;20037;-78
2022/09/25 06:59:36;;;;;;;6.22;3.58;;;;;;;6.84;100.00;101940.00;5031379;28;20037;-78
2022/09/25 07:03:43;;;;;;;8.55;3.05;;;;;;;6.96;100.00;101949.72;5028221;28;20075;-78
2022/09/25 07:04:50;;;;;;;4.90;2.97;;;;;;;7.10;100.00;101953.09;5011529;28;20034;-79
2022/09/25 07:07:20;;;;;;;10.02;5.95;;;;;;;7.16;100.00;101953.44;5025215;28;20044;-78
2022/09/25 07:09:49;;;;;;;8.55;4.90;;;;;;;7.20;100.00;101957.59;5023342;28;20033;-78
2022/09/25 07:12:17;;;;;;;16.95;8.32;;;;;;;7.25;100.00;101958.06;4992952;28;20029;-78
2022/09/25 07:14:45;;;;;;;13.63;7.80;;;;;;;7.23;100.00;101943.13;5011687;28;20037;-78
2022/09/25 07:17:12;;;;;;;15.50;8.55;;;;;;;7.38;100.00;101944.53;5022549;28;20037;-78
2022/09/25 07:19:39;;;;;;;19.95;10.15;;;;;;;7.40;100.00;101941.72;5026376;28;20017;-78
2022/09/25 07:22:04;;;;;;;14.48;6.40;;;;;;;7.47;100.00;101949.13;5006967;28;20033;-78
2022/09/25 07:24:31;;;;;;;15.65;7.75;;;;;;;7.51;100.00;101946.19;5010008;28;20041;-78
2022/09/25 07:26:57;;;;;;;15.77;7.57;;;;;;;7.61;100.00;101956.00;5022974;28;20033;-78
2022/09/25 07:29:22;;;;;;;11.10;7.03;;;;;;;7.71;100.00;101956.09;5014318;28;20028;-78
2022/09/25 07:31:48;;;;;;;10.35;5.97;;;;;;;7.74;100.00;101949.66;5031499;28;20048;-78
2022/09/25 07:34:15;;;;;;;11.45;6.22;;;;;;;7.85;100.00;101958.47;4993037;28;20033;-79
2022/09/25 07:36:41;;;;;;;13.98;5.97;;;;;;;7.89;100.00;101940.34;5028859;28;20061;-78
2022/09/25 07:39:07;;;;;;;12.32;5.20;;;;;;;7.92;100.00;101932.88;5020995;28;20477;-78
2022/09/25 07:41:33;;;;;;;11.48;5.43;;;;;;;8.03;100.00;101934.63;5026841;28;20025;-78
2022/09/25 07:43:59;;;;;;;10.70;5.03;;;;;;;8.17;100.00;101933.47;5010989;28;20554;-78
2022/09/25 07:46:26;;;;;;;11.35;4.60;;;;;;;8.27;100.00;101926.34;5020912;28;20025;-78
2022/09/25 07:48:52;;;;;;;10.95;5.10;;;;;;;8.29;100.00;101919.00;5010598;28;20037;-78
2022/09/25 07:51:20;;;;;;;13.32;6.03;;;;;;;8.47;100.00;101932.69;5028615;28;20044;-78
2022/09/25 07:53:45;;;;;;;9.65;5.30;;;;;;;8.56;100.00;101928.34;5015026;28;20033;-78
2022/09/25 07:56:11;;;;;;;13.65;6.68;;;;;;;8.65;100.00;101935.56;5024310;28;20044;-78
2022/09/25 07:58:37;;;;;;;23.55;10.35;;;;;;;8.66;100.00;101923.88;5014629;28;20488;-79
2022/09/25 08:01:05;;;;;;;19.30;11.32;;;;;;;8.73;100.00;101925.06;5022627;28;20029;-78
2022/09/25 08:03:31;;;;;;;18.15;8.75;;;;;;;8.79;100.00;101924.50;5026289;28;20627;-79
2022/09/25 08:06:06;;;;;;;21.40;8.77;;;;;;;8.87;100.00;101925.66;5030222;28;20112;-78
2022/09/25 08:08:35;;;;;;;13.65;5.18;;;;;;;8.92;100.00;101913.53;5017787;28;20037;-78
2022/09/25 08:11:02;;;;;;;4.85;2.80;;;;;;;9.04;100.00;101925.00;5026312;28;20033;-78
2022/09/25 08:13:29;;;;;;;7.32;4.05;;;;;;;9.12;100.00;101927.84;5023492;28;20014;-78
2022/09/25 08:15:55;;;;;;;8.90;4.13;;;;;;;9.19;100.00;101906.69;5024383;28;20080;-79
2022/09/25 08:18:21;;;;;;;8.20;4.50;;;;;;;9.46;100.00;101908.69;5021555;28;20765;-79
2022/09/25 08:20:46;;;;;;;8.88;4.22;;;;;;;9.71;100.00;101917.16;5023115;28;20026;-78
2022/09/25 08:23:12;;;;;;;9.35;4.20;;;;;;;9.91;100.00;101914.31;5028748;28;20037;-79
2022/09/25 08:25:38;;;;;;;10.20;4.68;;;;;;;10.16;100.00;101917.41;5020655;28;20049;-79
2022/09/25 08:28:03;;;;;;;8.40;4.32;;;;;;;10.41;100.00;101907.88;5024497;28;20033;-80
2022/09/25 08:30:29;;;;;;;7.03;3.83;;;;;;;10.73;100.00;101904.78;5013694;28;20376;-79
2022/09/25 08:32:54;;;;;;;9.27;4.68;;;;;;;11.19;100.00;101916.44;5026415;28;20041;-79
2022/09/25 08:35:20;;;;;;;10.40;4.57;;;;;;;11.64;100.00;101917.38;4996589;28;20090;-78
2022/09/25 08:37:47;;;;;;;7.60;3.90;;;;;;;12.17;100.00;101910.25;5009450;28;20029;-78
2022/09/25 08:40:21;;;;;;;8.98;4.05;;;;;;;12.53;100.00;101909.13;5025113;28;20032;-78
2022/09/25 08:42:48;;;;;;;6.88;3.33;;;;;;;12.74;100.00;101903.31;5024114;28;20650;-78
2022/09/25 08:49:04;;;;;;;8.40;3.28;;;;;;;12.55;100.00;101898.19;5013844;28;20391;-79
2022/09/25 08:51:33;;;;;;;7.18;3.17;;;;;;;12.43;100.00;101897.59;5009015;28;20050;-78
2022/09/25 08:53:59;;;;;;;6.53;3.28;;;;;;;12.52;100.00;101907.44;5007037;28;20048;-78
2022/09/25 08:56:27;;;;;;;7.32;3.50;;;;;;;12.63;100.00;101890.13;4990290;28;20304;-78
2022/09/25 08:59:08;;;;;;;6.15;3.42;;;;;;;12.74;100.00;101891.69;5002476;28;20499;-78
2022/09/25 09:02:14;;;;;;;6.28;2.97;;;;;;;12.93;100.00;101893.28;4999087;28;20036;-79
2022/09/25 09:04:53;;;;;;;10.30;3.58;;;;;;;13.11;100.00;101894.00;5023907;28;20041;-79
2022/09/25 09:07:23;;;;;;;7.22;3.20;;;;;;;13.23;99.72;101888.28;5026078;28;20034;-78
2022/09/25 09:09:54;;;;;;;6.63;4.47;;;;;;;13.39;99.14;101882.97;5023674;28;20129;-78
2022/09/25 09:12:34;;;;;;;6.40;3.05;;;;;;;13.59;95.51;101873.50;5007509;28;20064;-77
2022/09/25 09:15:14;;;;;;;6.03;2.70;;;;;;;13.82;93.20;101875.53;4996257;28;20045;-80
2022/09/25 09:17:41;;;;;;;6.10;2.78;;;;;;;14.05;91.93;101873.84;5003880;28;20055;-78
2022/09/25 09:20:17;;;;;;;6.07;2.95;;;;;;;14.52;92.06;101874.88;5007747;28;20041;-78
2022/09/25 09:22:48;;;;;;;10.50;3.13;;;;;;;14.94;89.74;101868.31;4991096;28;20120;-79
2022/09/25 09:25:32;;;;;;;8.38;3.75;;;;;;;15.07;88.15;101860.44;5023221;28;20029;-78
2022/09/25 09:28:32;;;;;;;6.05;2.72;;;;;;;14.75;88.48;101845.22;5023019;28;20026;-78
2022/09/25 09:31:22;;;;;;;6.90;2.83;;;;;;;14.37;88.98;101831.47;5009905;28;20129;-79
2022/09/25 09:33:56;;;;;;;8.80;4.25;;;;;;;14.28;89.88;101835.22;5022810;28;20026;-78
2022/09/25 09:36:45;;;;;;;7.63;3.65;;;;;;;14.46;92.16;101841.25;5028213;28;20033;-78
2022/09/25 09:39:26;;;;;;;7.88;3.33;;;;;;;14.50;91.41;101815.53;5010911;28;20037;-78
2022/09/25 09:42:08;;;;;;;6.50;3.20;;;;;;;14.59;90.27;101823.66;5002974;28;20062;-78
2022/09/25 09:44:59;;;;;;;6.80;3.33;;;;;;;14.82;88.69;101812.84;5022282;28;20065;-78
2022/09/25 09:47:38;;;;;;;9.02;3.50;;;;;;;15.71;84.38;101814.06;5021394;28;20025;-78
2022/09/25 09:50:22;;;;;;;5.00;2.80;;;;;;;16.44;80.01;101825.16;5025241;28;20053;-78
2022/09/25 09:52:58;;;;;;;5.18;3.55;;;;;;;16.33;79.93;101817.50;5026814;28;20047;-79
2022/09/25 09:55:27;;;;;;;4.57;2.40;;;;;;;16.34;79.12;101814.59;5022735;28;20052;-78
2022/09/25 09:58:07;;;;;;;5.13;2.17;;;;;;;16.35;78.04;101820.84;5024435;28;20036;-78
2022/09/25 10:00:33;;;;;;;4.45;2.13;;;;;;;16.11;78.83;101811.97;5015797;28;20464;-78
2022/09/25 10:03:03;;;;;;;6.40;2.67;;;;;;;15.93;79.72;101795.19;5012724;28;20033;-79
2022/09/25 10:05:42;;;;;;;3.80;2.65;;;;;;;15.80;79.52;101804.84;5029428;28;20036;-79
2022/09/25 10:08:08;;;;;;;8.68;2.17;;;;;;;15.45;80.04;101802.75;5020395;28;20034;-79
2022/09/25 10:10:37;;;;;;;7.68;2.20;;;;;;;15.27;81.12;101784.09;5010713;28;20027;-80
2022/09/25 10:13:06;;;;;;;4.18;2.20;;;;;;;15.48;81.15;101802.38;5010265;28;20057;-79
2022/09/25 10:15:37;;;;;;;4.45;1.70;;;;;;;15.45;81.00;101808.19;5012737;28;20091;-79
2022/09/25 10:18:02;;;;;;;7.22;1.83;;;;;;;15.57;79.93;101806.72;5021325;28;20503;-79
2022/09/25 10:20:41;;;;;;;3.33;1.50;;;;;;;15.52;81.02;101818.09;5026879;28;20037;-80
2022/09/25 10:23:35;;;;;;;5.28;1.67;;;;;;;15.65;80.90;101813.94;5013875;28;20082;-79
2022/09/25 10:26:01;;;;;;;2.58;1.35;;;;;;;15.83;79.91;101806.34;5010689;28;20042;-79
2022/09/25 10:28:28;;;;;;;5.32;2.80;;;;;;;16.07;79.16;101802.53;5012032;28;20040;-79
2022/09/25 10:30:55;;;;;;;4.35;1.50;;;;;;;16.18;78.31;101785.78;5031352;28;20430;-79
2022/09/25 10:33:23;;;;;;;3.90;1.60;;;;;;;16.53;74.85;101796.03;5010523;28;20033;-79
2022/09/25 10:35:53;;;;;;;3.95;1.50;;;;;;;16.79;75.66;101784.69;4992934;28;20033;-80
2022/09/25 10:38:33;;;;;;;2.00;1.20;;;;;;;17.13;75.72;101776.69;5025893;28;20376;-79
2022/09/25 10:41:02;;;;;;;1.58;1.42;;;;;;;17.66;72.78;101776.28;5029301;28;20503;-80
2022/09/25 10:43:27;;;;;;;3.20;1.50;;;;;;;17.85;71.53;101765.78;5007023;28;20025;-79
2022/09/25 10:46:06;;;;;;;5.10;1.27;;;;;;;17.70;70.92;101771.28;5029240;28;20087;-79
2022/09/25 10:51:20;;;;;;;5.57;1.30;;;;;;;17.61;69.28;101761.59;5023915;28;20095;-80
2022/09/25 10:54:16;;;;;;;3.05;1.15;;;;;;;17.71;69.73;101743.91;5023640;28;20041;-79
2022/09/25 10:56:41;;;;;;;2.17;1.00;;;;;;;17.83;69.33;101738.75;5025539;28;20045;-79
2022/09/25 10:59:18;;;;;;;1.48;0.90;;;;;;;18.49;66.03;101745.56;5028345;28;20472;-79
2022/09/25 11:01:44;;;;;;;1.23;0.70;;;;;;;19.22;62.89;101732.13;5023603;28;20029;-79
2022/09/25 11:04:19;;;;;;;2.55;1.00;;;;;;;19.67;60.25;101755.00;5025453;28;20503;-78
2022/09/25 11:06:52;;;;;;;2.00;1.23;;;;;;;22.21;51.71;101735.91;4995283;28;20037;-80
2022/09/25 11:09:21;;;;;;;0.70;0.70;;;;;;;24.40;44.60;101742.44;5022977;28;20030;-81
2022/09/25 11:11:48;;;;;;;2.75;0.80;;;;;;;23.26;46.83;101727.25;5010590;28;20113;-80
2022/09/25 11:14:33;;;;;;;2.38;0.90;;;;;;;22.01;48.46;101727.88;5025930;28;20095;-79
2022/09/25 11:17:00;;;;;;;1.77;0.80;;;;;;;20.57;53.42;101722.38;5030969;28;20502;-80
2022/09/25 11:19:29;;;;;;;3.95;0.95;;;;;;;19.47;57.39;101719.50;5019698;28;20124;-79
2022/09/25 11:22:10;;;;;;;1.40;0.93;;;;;;;18.35;62.12;101709.28;5007796;28;20060;-79
2022/09/25 11:24:48;;;;;;;1.42;0.80;;;;;;;17.41;65.80;101716.09;4991135;28;20091;-79
2022/09/25 11:27:21;;;;;;;1.80;0.80;;;;;;;16.53;70.13;101693.69;4988390;28;20033;-79
2022/09/25 11:29:56;;;;;;;2.38;0.88;;;;;;;16.26;72.29;101698.81;4992773;28;20030;-79
2022/09/25 11:32:43;;;;;;;2.95;0.90;;;;;;;16.68;72.31;101709.94;5027172;28;20033;-79
2022/09/25 11:35:26;;;;;;;1.15;0.80;;;;;;;16.88;71.55;101707.44;5023581;28;20029;-81
2022/09/25 11:38:00;;;;;;;0.70;0.70;;;;;;;17.22;70.73;101714.88;5027639;28;20044;-79
2022/09/25 11:43:35;;;;;;;0.77;0.70;;;;;;;18.10;66.59;101718.00;5009712;28;20510;-79
2022/09/25 11:46:10;;;;;;;1.20;0.77;;;;;;;18.37;64.52;101702.59;5026648;28;20075;-79
2022/09/25 11:49:10;;;;;;;0.88;0.80;;;;;;;20.33;59.07;101717.63;5025220;28;20056;-79
2022/09/25 11:51:39;;;;;;;1.80;0.70;;;;;;;20.94;55.06;101717.09;4987333;28;20034;-77
2022/09/25 11:54:22;;;;;;;0.82;0.60;;;;;;;19.91;57.25;101687.13;5024995;28;20468;-78
2022/09/25 11:57:04;;;;;;;1.73;0.88;;;;;;;19.08;59.74;101687.66;5025087;28;20472;-78
2022/09/25 12:00:03;;;;;;;1.40;0.70;;;;;;;19.38;57.25;101688.06;5007424;28;20037;-78